createdAt,value
2023-02-22T12:07:40.851Z,100303.64
2023-02-22T12:09:45.419Z,100299.59
2023-02-22T12:11:49.940Z,100299.31
2023-02-22T12:13:54.454Z,100299.13
2023-02-22T12:15:59.039Z,100297.91
2023-02-22T12:18:03.707Z,100292.69
2023-02-22T12:20:08.120Z,100292.54
2023-02-22T12:22:12.619Z,100293.43
2023-02-22T12:24:17.005Z,100297.38
2023-02-22T12:26:22.561Z,100299.87
2023-02-22T12:28:27.188Z,100303.52
2023-02-22T12:30:31.979Z,100302.11
2023-02-22T12:32:36.773Z,100303.13
2023-02-22T12:34:41.640Z,100302.3
2023-02-22T12:36:46.429Z,100300.3
2023-02-22T12:38:50.953Z,100296.97
2023-02-22T12:40:55.558Z,100287.33
2023-02-22T12:42:59.984Z,100287.63
2023-02-22T12:45:09.880Z,100284.57
2023-02-22T12:47:15.458Z,100285.5
2023-02-22T12:49:19.902Z,100286.39
2023-02-22T12:51:24.415Z,100285.56
2023-02-22T12:53:28.824Z,100279.34
2023-02-22T12:55:33.330Z,100276.91
2023-02-22T12:57:37.850Z,100280.78
2023-02-22T12:59:42.417Z,100279.81
2023-02-22T13:01:46.943Z,100276.67
2023-02-22T13:03:51.455Z,100277.78
2023-02-22T13:05:56.028Z,100274.75
2023-02-22T13:08:00.504Z,100276.76
2023-02-22T13:10:04.906Z,100274.64
2023-02-22T13:12:09.269Z,100273.17
2023-02-22T13:14:13.858Z,100269.56
2023-02-22T13:16:18.429Z,100254.45
2023-02-22T13:18:23.275Z,100269.38
2023-02-22T13:20:27.982Z,100271.16
2023-02-22T13:22:32.549Z,100271.87
2023-02-22T13:24:37.132Z,100267.34
2023-02-22T13:26:44.850Z,100266.89
2023-02-22T13:28:49.510Z,100272.92
2023-02-22T13:30:54.061Z,100267.59
2023-02-22T13:32:58.665Z,100271.59
2023-02-22T13:35:03.125Z,100273.47
2023-02-22T13:37:07.732Z,100272.72
2023-02-22T13:39:12.191Z,100273.25
2023-02-22T13:41:17.377Z,100273.58
2023-02-22T13:43:22.175Z,100275.09
2023-02-22T13:45:26.559Z,100274.44
2023-02-22T13:47:30.932Z,100272.71
2023-02-22T13:49:35.413Z,100275.77
2023-02-22T13:51:39.968Z,100273.23
2023-02-22T13:53:44.450Z,100272.52
2023-02-22T13:55:48.997Z,100277.45
2023-02-22T13:57:53.372Z,100277.09
2023-02-22T13:59:58.102Z,100274.06
2023-02-22T14:02:02.794Z,100276.74
2023-02-22T14:04:07.280Z,100272.09
2023-02-22T14:06:11.892Z,100269.58
2023-02-22T14:08:16.300Z,100272.92
2023-02-22T14:10:20.766Z,100272.98
2023-02-22T14:12:25.328Z,100265.68
2023-02-22T14:14:29.800Z,100269.59
2023-02-22T14:16:34.376Z,100267.03
2023-02-22T14:18:38.910Z,100266.88
2023-02-22T14:20:43.310Z,100265.55
2023-02-22T14:22:49.187Z,100259.83
2023-02-22T14:24:53.856Z,100254.48
2023-02-22T14:26:58.306Z,100255.63
2023-02-22T14:29:02.721Z,100256.16
2023-02-22T14:31:07.550Z,100255.56
2023-02-22T14:33:12.325Z,100260.67
2023-02-22T14:35:33.288Z,100257.11
2023-02-22T14:37:53.270Z,100257.02
2023-02-22T14:39:57.672Z,100259.41
2023-02-22T14:42:02.077Z,100257.7
2023-02-22T14:44:06.592Z,100259.16
2023-02-22T14:46:14.106Z,100258.05
2023-02-22T14:48:19.090Z,100256.31
2023-02-22T14:50:23.504Z,100258.73
2023-02-22T14:52:27.948Z,100254.27
2023-02-22T14:54:32.475Z,100254.16
2023-02-22T14:56:37.016Z,100255.77
2023-02-22T14:58:41.453Z,100259.1
2023-02-22T15:00:45.883Z,100258.42
2023-02-22T15:02:50.373Z,100259.55
2023-02-22T15:04:55.017Z,100258.63
2023-02-22T15:06:59.670Z,100261
2023-02-22T15:09:04.217Z,100256.05
2023-02-22T15:11:08.805Z,100255.44
2023-02-22T15:13:13.358Z,100252.27
2023-02-22T15:15:17.905Z,100246.43
2023-02-22T15:17:22.412Z,100250.59
2023-02-22T15:19:26.930Z,100246.91
2023-02-22T15:21:31.476Z,100253.34
2023-02-22T15:23:36.000Z,100249.95
2023-02-22T15:25:40.834Z,100255.73
2023-02-22T15:27:45.272Z,100254.37
2023-02-22T15:29:49.901Z,100252.55
2023-02-22T15:31:54.804Z,100245.02
2023-02-22T15:33:59.251Z,100251.66
2023-02-22T15:36:03.877Z,100248.92
2023-02-22T15:38:08.767Z,100249.08
2023-02-22T15:40:13.218Z,100247.16
2023-02-22T15:42:17.627Z,100246.95
2023-02-22T15:44:25.139Z,100248.33
2023-02-22T15:46:29.666Z,100251.63
2023-02-22T15:48:34.109Z,100253.53
2023-02-22T15:50:38.588Z,100256.44
2023-02-22T15:52:43.042Z,100254.22
2023-02-22T15:54:47.518Z,100254.06
2023-02-22T15:56:51.930Z,100252.82
2023-02-22T15:58:56.459Z,100252.52
2023-02-22T16:01:01.209Z,100257.27
2023-02-22T16:03:05.766Z,100259.08
2023-02-22T16:05:10.161Z,100263.34
2023-02-22T16:07:14.660Z,100261.94
2023-02-22T16:09:19.092Z,100260.16
2023-02-22T16:11:24.022Z,100255.77
2023-02-22T16:13:33.764Z,100256.53
2023-02-22T16:15:38.254Z,100260.47
2023-02-22T16:18:02.464Z,100258.96
2023-02-22T16:20:07.115Z,100265.87
2023-02-22T16:22:11.611Z,100265.03
2023-02-22T16:24:16.922Z,100269.22
2023-02-22T16:26:21.332Z,100267.79
2023-02-22T16:28:25.809Z,100269.9
2023-02-22T16:30:30.622Z,100273.53
2023-02-22T16:32:35.559Z,100269.71
2023-02-22T16:34:40.117Z,100274.07
2023-02-22T16:36:44.710Z,100275.87
2023-02-22T16:38:49.273Z,100277.47
2023-02-22T16:40:53.738Z,100280.48
2023-02-22T16:42:58.199Z,100279.82
2023-02-22T16:45:02.626Z,100280.61
2023-02-22T16:47:07.150Z,100284.81
2023-02-22T16:49:11.536Z,100285.88
2023-02-22T16:51:16.074Z,100286.7
2023-02-22T16:53:20.579Z,100286.31
2023-02-22T16:55:25.062Z,100285.84
2023-02-22T16:57:29.580Z,100287.75
2023-02-22T16:59:34.001Z,100294.84
2023-02-22T17:01:38.595Z,100291.7
2023-02-22T17:03:43.158Z,100293.5
2023-02-22T17:05:47.946Z,100295.81
2023-02-22T17:07:52.647Z,100295.83
2023-02-22T17:09:57.192Z,100295.19
2023-02-22T17:12:01.632Z,100300.3
2023-02-22T17:14:06.164Z,100300.62
2023-02-22T17:16:10.707Z,100306.05
2023-02-22T17:18:15.317Z,100311.83
2023-02-22T17:20:19.882Z,100309.73
2023-02-22T17:22:24.448Z,100308.7
2023-02-22T17:24:28.869Z,100310.8
2023-02-22T17:26:33.318Z,100307.73
2023-02-22T17:28:37.969Z,100312.45
2023-02-22T17:30:42.601Z,100305.38
2023-02-22T17:32:47.160Z,100306.86
2023-02-22T17:34:51.576Z,100308
2023-02-22T17:36:56.103Z,100311
2023-02-22T17:39:00.511Z,100309.59
2023-02-22T17:41:05.214Z,100307.98
2023-02-22T17:43:09.850Z,100310.56
2023-02-22T17:45:14.285Z,100310.1
2023-02-22T17:47:18.910Z,100301.43
2023-02-22T17:49:23.399Z,100312.86
2023-02-22T17:51:27.843Z,100311
2023-02-22T17:53:32.485Z,100311.86
2023-02-22T17:55:36.934Z,100310.14
2023-02-22T17:57:41.450Z,100307.28
2023-02-22T17:59:46.040Z,100304.3
2023-02-22T18:01:50.694Z,100304.27
2023-02-22T18:03:55.154Z,100307.66
2023-02-22T18:05:59.941Z,100309.66
2023-02-22T18:08:04.395Z,100308.1
2023-02-22T18:10:08.808Z,100308.59
2023-02-22T18:12:13.236Z,100306.95
2023-02-22T18:14:17.768Z,100301.39
2023-02-22T18:16:22.759Z,100306.05
2023-02-22T18:18:27.546Z,100303.4
2023-02-22T18:20:32.177Z,100313.7
2023-02-22T18:22:36.704Z,100310.98
2023-02-22T18:24:41.171Z,100310.47
2023-02-22T18:26:45.787Z,100305.95
2023-02-22T18:28:50.308Z,100315.11
2023-02-22T18:30:55.998Z,100316.59
2023-02-22T18:33:00.751Z,100316.78
2023-02-22T18:35:05.251Z,100315.33
2023-02-22T18:37:09.719Z,100317.16
2023-02-22T18:39:15.050Z,100316.71
2023-02-22T18:41:19.467Z,100318.85
2023-02-22T18:43:24.133Z,100316.2
2023-02-22T18:45:29.154Z,100314.08
2023-02-22T18:47:33.551Z,100309.66
2023-02-22T18:49:37.951Z,100309.8
2023-02-22T18:51:42.509Z,100304.33
2023-02-22T18:53:48.721Z,100303.05
2023-02-22T18:55:53.200Z,100307.08
2023-02-22T18:57:57.686Z,100304.28
2023-02-22T19:00:02.117Z,100307.53
2023-02-22T19:02:06.720Z,100306.22
2023-02-22T19:04:11.352Z,100304.85
2023-02-22T19:06:16.115Z,100303.84
2023-02-22T19:08:21.617Z,100305.83
2023-02-22T19:10:26.042Z,100307.73
2023-02-22T19:12:30.487Z,100302.17
2023-02-22T19:14:34.970Z,100306.02
2023-02-22T19:16:39.411Z,100301.19
2023-02-22T19:18:43.855Z,100300.34
2023-02-22T19:20:48.313Z,100302.29
2023-02-22T19:22:52.707Z,100301.4
2023-02-22T19:24:57.250Z,100298.36
2023-02-22T19:27:01.759Z,100299.63
2023-02-22T19:29:06.371Z,100296.99
2023-02-22T19:31:11.168Z,100297.19
2023-02-22T19:33:15.998Z,100298.66
2023-02-22T19:35:20.483Z,100301.33
2023-02-22T19:37:24.905Z,100305.38
2023-02-22T19:39:29.397Z,100306.89
2023-02-22T19:41:33.985Z,100309.16
2023-02-22T19:43:38.386Z,100305.3
2023-02-22T19:45:43.040Z,100308.06
2023-02-22T19:47:47.632Z,100312.14
2023-02-22T19:49:52.154Z,100311.77
2023-02-22T19:51:56.673Z,100315.03
2023-02-22T19:54:01.062Z,100310.56
2023-02-22T19:56:06.843Z,100312.69
2023-02-22T19:58:11.359Z,100313.52
2023-02-22T20:00:15.810Z,100313.28
2023-02-22T20:02:20.262Z,100315.45
2023-02-22T20:04:25.075Z,100315.17
2023-02-22T20:06:29.846Z,100315.76
2023-02-22T20:08:34.282Z,100321.23
2023-02-22T20:10:38.677Z,100317.91
2023-02-22T20:12:43.126Z,100320.28
2023-02-22T20:14:47.542Z,100319
2023-02-22T20:16:51.939Z,100324.83
2023-02-22T20:18:56.352Z,100319.27
2023-02-22T20:21:00.964Z,100321.73
2023-02-22T20:23:05.459Z,100328.03
2023-02-22T20:25:09.898Z,100331.42
2023-02-22T20:27:14.297Z,100325.18
2023-02-22T20:29:18.773Z,100332.59
2023-02-22T20:31:23.476Z,100330.47
2023-02-22T20:33:28.725Z,100323.88
2023-02-22T20:35:33.540Z,100323.1
2023-02-22T20:37:37.958Z,100323.56
2023-02-22T20:39:42.576Z,100320.95
2023-02-22T20:41:47.018Z,100325.32
2023-02-22T20:43:51.407Z,100323.82
2023-02-22T20:45:55.995Z,100321.72
2023-02-22T20:48:00.773Z,100315.92
2023-02-22T20:50:05.330Z,100324.56
2023-02-22T20:52:09.797Z,100316.72
2023-02-22T20:54:14.213Z,100312.17
2023-02-22T20:56:18.673Z,100299.14
2023-02-22T20:58:23.108Z,100292.27
2023-02-22T21:00:27.533Z,100299.27
2023-02-22T21:02:31.977Z,100292.78
2023-02-22T21:04:36.552Z,100293.64
2023-02-22T21:06:41.509Z,100288.69
2023-02-22T21:08:45.867Z,100293.11
2023-02-22T21:10:50.421Z,100293.02
2023-02-22T21:12:56.902Z,100293.84
2023-02-22T21:15:03.831Z,100289.28
2023-02-22T21:17:08.392Z,100291.26
2023-02-22T21:19:13.024Z,100295.34
2023-02-22T21:21:18.432Z,100305.23
2023-02-22T21:23:23.238Z,100305.92
2023-02-22T21:25:27.655Z,100301.73
2023-02-22T21:27:32.053Z,100300.63
2023-02-22T21:29:36.646Z,100298.88
2023-02-22T21:31:41.716Z,100298.66
2023-02-22T21:33:46.501Z,100302.63
2023-02-22T21:35:50.916Z,100298.56
2023-02-22T21:37:55.342Z,100300.72
2023-02-22T21:39:59.736Z,100299.71
2023-02-22T21:42:04.295Z,100294.42
2023-02-22T21:44:08.832Z,100290.95
2023-02-22T21:46:13.420Z,100287.04
2023-02-22T21:48:17.926Z,100289.55
2023-02-22T21:50:22.371Z,100290.33
2023-02-22T21:52:26.770Z,100288.88
2023-02-22T21:54:31.194Z,100294.66
2023-02-22T21:56:35.585Z,100290.16
2023-02-22T21:58:40.130Z,100290.28
2023-02-22T22:00:44.538Z,100286.96
2023-02-22T22:02:49.193Z,100288.93
2023-02-22T22:04:53.651Z,100280.52
2023-02-22T22:06:58.093Z,100279.33
2023-02-22T22:09:02.572Z,100282.83
2023-02-22T22:11:06.965Z,100280
2023-02-22T22:13:11.362Z,100276.42
2023-02-22T22:15:15.953Z,100276.42
2023-02-22T22:17:20.360Z,100271.34
2023-02-22T22:19:24.789Z,100271.41
2023-02-22T22:21:29.195Z,100275.09
2023-02-22T22:23:33.580Z,100269.25
2023-02-22T22:25:38.008Z,100263.37
2023-02-22T22:27:42.583Z,100261.91
2023-02-22T22:29:47.054Z,100265.25
2023-02-22T22:31:51.858Z,100258.55
2023-02-22T22:33:56.766Z,100263.69
2023-02-22T22:36:01.339Z,100263.61
2023-02-22T22:38:05.775Z,100258.88
2023-02-22T22:40:10.255Z,100250.8
2023-02-22T22:42:14.640Z,100249.53
2023-02-22T22:44:19.049Z,100255.08
2023-02-22T22:46:23.572Z,100237.5
2023-02-22T22:48:28.084Z,100238.73
2023-02-22T22:50:32.498Z,100238.13
2023-02-22T22:52:37.004Z,100241.45
2023-02-22T22:54:41.392Z,100238.21
2023-02-22T22:56:45.776Z,100238.06
2023-02-22T22:58:50.174Z,100234.91
2023-02-22T23:00:54.586Z,100238.16
2023-02-22T23:02:59.174Z,100230.41
2023-02-22T23:05:03.834Z,100235.61
2023-02-22T23:07:08.286Z,100231.81
2023-02-22T23:09:12.830Z,100236.16
2023-02-22T23:11:18.076Z,100234.13
2023-02-22T23:13:23.021Z,100237.36
2023-02-22T23:15:27.436Z,100237.78
2023-02-22T23:17:32.629Z,100241.47
2023-02-22T23:19:37.070Z,100236.97
2023-02-22T23:21:41.472Z,100238.7
2023-02-22T23:23:45.891Z,100235.48
2023-02-22T23:25:50.367Z,100238.07
2023-02-22T23:27:54.759Z,100239.83
